sensor_id;sensor_type;location;lat;lon;timestamp;temperature;humidity
16521;DHT22;8373;48.110;11.522;2022-12-31T00:01:15;12.90;80.70
16521;DHT22;8373;48.110;11.522;2022-12-31T00:03:43;13.00;80.80
16521;DHT22;8373;48.110;11.522;2022-12-31T00:06:16;13.10;80.70
16521;DHT22;8373;48.110;11.522;2022-12-31T00:08:45;13.10;80.60
16521;DHT22;8373;48.110;11.522;2022-12-31T00:11:12;13.10;80.50
16521;DHT22;8373;48.110;11.522;2022-12-31T00:13:40;13.10;80.30
16521;DHT22;8373;48.110;11.522;2022-12-31T00:16:09;13.10;80.10
16521;DHT22;8373;48.110;11.522;2022-12-31T00:18:36;13.10;80.00
16521;DHT22;8373;48.110;11.522;2022-12-31T00:21:05;13.20;79.80
16521;DHT22;8373;48.110;11.522;2022-12-31T00:23:32;13.20;79.70
16521;DHT22;8373;48.110;11.522;2022-12-31T00:26:05;13.30;79.80
16521;DHT22;8373;48.110;11.522;2022-12-31T00:28:32;13.20;79.70
16521;DHT22;8373;48.110;11.522;2022-12-31T00:31:05;13.30;80.20
16521;DHT22;8373;48.110;11.522;2022-12-31T00:33:32;13.30;80.70
16521;DHT22;8373;48.110;11.522;2022-12-31T00:36:10;13.30;80.60
16521;DHT22;8373;48.110;11.522;2022-12-31T00:38:38;13.30;80.40
16521;DHT22;8373;48.110;11.522;2022-12-31T00:41:07;13.30;80.30
16521;DHT22;8373;48.110;11.522;2022-12-31T00:43:35;13.30;80.20
16521;DHT22;8373;48.110;11.522;2022-12-31T00:46:02;13.30;79.80
16521;DHT22;8373;48.110;11.522;2022-12-31T00:48:30;13.30;79.70
16521;DHT22;8373;48.110;11.522;2022-12-31T00:50:58;13.40;79.50
16521;DHT22;8373;48.110;11.522;2022-12-31T00:53:25;13.40;79.50
16521;DHT22;8373;48.110;11.522;2022-12-31T00:55:58;13.50;79.50
16521;DHT22;8373;48.110;11.522;2022-12-31T00:58:27;13.50;79.60
16521;DHT22;8373;48.110;11.522;2022-12-31T01:00:54;13.50;79.60
16521;DHT22;8373;48.110;11.522;2022-12-31T01:03:21;13.50;79.60
16521;DHT22;8373;48.110;11.522;2022-12-31T01:05:48;13.50;79.70
16521;DHT22;8373;48.110;11.522;2022-12-31T01:08:16;13.50;79.80
16521;DHT22;8373;48.110;11.522;2022-12-31T01:10:47;13.50;79.70
16521;DHT22;8373;48.110;11.522;2022-12-31T01:13:33;13.60;79.80
16521;DHT22;8373;48.110;11.522;2022-12-31T01:16:06;13.60;79.90
16521;DHT22;8373;48.110;11.522;2022-12-31T01:18:33;13.60;80.00
16521;DHT22;8373;48.110;11.522;2022-12-31T01:21:01;13.60;80.00
16521;DHT22;8373;48.110;11.522;2022-12-31T01:23:28;13.60;79.90
16521;DHT22;8373;48.110;11.522;2022-12-31T01:25:58;13.70;80.00
16521;DHT22;8373;48.110;11.522;2022-12-31T01:28:26;13.70;79.80
16521;DHT22;8373;48.110;11.522;2022-12-31T01:30:54;13.70;79.70
16521;DHT22;8373;48.110;11.522;2022-12-31T01:33:21;13.70;79.70
16521;DHT22;8373;48.110;11.522;2022-12-31T01:35:48;13.70;79.70
16521;DHT22;8373;48.110;11.522;2022-12-31T01:38:15;13.70;79.70
16521;DHT22;8373;48.110;11.522;2022-12-31T01:40:42;13.70;79.80
16521;DHT22;8373;48.110;11.522;2022-12-31T01:43:15;13.70;79.60
16521;DHT22;8373;48.110;11.522;2022-12-31T01:45:43;13.70;79.60
16521;DHT22;8373;48.110;11.522;2022-12-31T01:48:14;13.70;79.50
16521;DHT22;8373;48.110;11.522;2022-12-31T01:50:45;13.70;80.20
16521;DHT22;8373;48.110;11.522;2022-12-31T01:53:13;13.70;79.40
16521;DHT22;8373;48.110;11.522;2022-12-31T01:55:45;13.70;79.40
16521;DHT22;8373;48.110;11.522;2022-12-31T01:58:17;13.70;79.50
16521;DHT22;8373;48.110;11.522;2022-12-31T02:00:46;13.70;79.60
16521;DHT22;8373;48.110;11.522;2022-12-31T02:03:15;13.70;79.30
16521;DHT22;8373;48.110;11.522;2022-12-31T02:05:45;13.70;79.30
16521;DHT22;8373;48.110;11.522;2022-12-31T02:08:13;13.70;79.10
16521;DHT22;8373;48.110;11.522;2022-12-31T02:10:40;13.80;79.10
16521;DHT22;8373;48.110;11.522;2022-12-31T02:13:07;13.80;78.90
16521;DHT22;8373;48.110;11.522;2022-12-31T02:15:42;13.80;78.80
16521;DHT22;8373;48.110;11.522;2022-12-31T02:18:21;13.80;78.70
16521;DHT22;8373;48.110;11.522;2022-12-31T02:27:02;13.80;78.40
16521;DHT22;8373;48.110;11.522;2022-12-31T02:30:06;13.70;78.30
16521;DHT22;8373;48.110;11.522;2022-12-31T02:32:56;13.70;78.30
16521;DHT22;8373;48.110;11.522;2022-12-31T02:35:29;13.80;78.40
16521;DHT22;8373;48.110;11.522;2022-12-31T02:38:02;13.80;78.30
16521;DHT22;8373;48.110;11.522;2022-12-31T02:40:33;13.80;78.10
16521;DHT22;8373;48.110;11.522;2022-12-31T02:43:00;13.80;77.90
16521;DHT22;8373;48.110;11.522;2022-12-31T02:45:31;13.80;77.90
16521;DHT22;8373;48.110;11.522;2022-12-31T02:51:04;13.90;77.60
16521;DHT22;8373;48.110;11.522;2022-12-31T02:53:49;13.90;77.60
16521;DHT22;8373;48.110;11.522;2022-12-31T02:56:21;13.90;77.50
16521;DHT22;8373;48.110;11.522;2022-12-31T02:58:58;13.90;77.50
16521;DHT22;8373;48.110;11.522;2022-12-31T03:01:49;13.90;77.40
16521;DHT22;8373;48.110;11.522;2022-12-31T03:04:35;13.90;77.10
16521;DHT22;8373;48.110;11.522;2022-12-31T03:07:04;13.90;76.90
16521;DHT22;8373;48.110;11.522;2022-12-31T03:09:31;14.00;76.90
16521;DHT22;8373;48.110;11.522;2022-12-31T03:11:59;14.00;76.80
16521;DHT22;8373;48.110;11.522;2022-12-31T03:14:44;14.10;76.80
16521;DHT22;8373;48.110;11.522;2022-12-31T03:17:12;14.10;76.50
16521;DHT22;8373;48.110;11.522;2022-12-31T03:19:39;14.10;76.30
16521;DHT22;8373;48.110;11.522;2022-12-31T03:22:23;14.10;76.10
16521;DHT22;8373;48.110;11.522;2022-12-31T03:24:54;14.10;75.80
16521;DHT22;8373;48.110;11.522;2022-12-31T03:27:39;14.20;75.70
16521;DHT22;8373;48.110;11.522;2022-12-31T03:30:07;14.20;75.40
16521;DHT22;8373;48.110;11.522;2022-12-31T03:32:36;14.30;75.30
16521;DHT22;8373;48.110;11.522;2022-12-31T03:35:04;14.30;75.00
16521;DHT22;8373;48.110;11.522;2022-12-31T03:37:31;14.30;74.80
16521;DHT22;8373;48.110;11.522;2022-12-31T03:39:58;14.30;74.70
16521;DHT22;8373;48.110;11.522;2022-12-31T03:42:25;14.40;74.50
16521;DHT22;8373;48.110;11.522;2022-12-31T03:44:51;14.40;74.30
16521;DHT22;8373;48.110;11.522;2022-12-31T03:47:18;14.40;74.10
16521;DHT22;8373;48.110;11.522;2022-12-31T03:49:47;14.40;73.90
16521;DHT22;8373;48.110;11.522;2022-12-31T03:52:14;14.40;73.70
16521;DHT22;8373;48.110;11.522;2022-12-31T03:54:41;14.40;73.70
16521;DHT22;8373;48.110;11.522;2022-12-31T03:57:07;14.40;73.50
16521;DHT22;8373;48.110;11.522;2022-12-31T03:59:34;14.40;73.60
16521;DHT22;8373;48.110;11.522;2022-12-31T04:02:01;14.50;73.50
16521;DHT22;8373;48.110;11.522;2022-12-31T04:04:28;14.50;73.40
16521;DHT22;8373;48.110;11.522;2022-12-31T04:06:57;14.50;73.10
16521;DHT22;8373;48.110;11.522;2022-12-31T04:09:23;14.50;73.10
16521;DHT22;8373;48.110;11.522;2022-12-31T04:11:50;14.60;73.20
16521;DHT22;8373;48.110;11.522;2022-12-31T04:14:18;14.60;73.80
16521;DHT22;8373;48.110;11.522;2022-12-31T04:16:45;14.60;73.00
16521;DHT22;8373;48.110;11.522;2022-12-31T04:19:12;14.60;72.80
16521;DHT22;8373;48.110;11.522;2022-12-31T04:21:39;14.70;72.70
16521;DHT22;8373;48.110;11.522;2022-12-31T04:24:07;14.70;72.60
16521;DHT22;8373;48.110;11.522;2022-12-31T04:26:34;14.70;72.40
16521;DHT22;8373;48.110;11.522;2022-12-31T04:29:02;14.70;72.40
16521;DHT22;8373;48.110;11.522;2022-12-31T04:31:29;14.70;72.30
16521;DHT22;8373;48.110;11.522;2022-12-31T04:33:56;14.80;72.10
16521;DHT22;8373;48.110;11.522;2022-12-31T04:36:23;14.80;71.80
16521;DHT22;8373;48.110;11.522;2022-12-31T04:38:50;14.80;71.70
16521;DHT22;8373;48.110;11.522;2022-12-31T04:41:18;14.80;71.40
16521;DHT22;8373;48.110;11.522;2022-12-31T04:43:48;14.90;71.50
16521;DHT22;8373;48.110;11.522;2022-12-31T04:46:16;14.90;71.50
16521;DHT22;8373;48.110;11.522;2022-12-31T04:48:43;14.90;71.30
16521;DHT22;8373;48.110;11.522;2022-12-31T04:51:11;14.90;71.20
16521;DHT22;8373;48.110;11.522;2022-12-31T04:53:38;14.90;71.30
16521;DHT22;8373;48.110;11.522;2022-12-31T04:56:06;14.90;71.20
16521;DHT22;8373;48.110;11.522;2022-12-31T04:58:36;14.90;71.20
16521;DHT22;8373;48.110;11.522;2022-12-31T05:01:03;15.00;71.40
16521;DHT22;8373;48.110;11.522;2022-12-31T05:03:30;15.00;71.30
16521;DHT22;8373;48.110;11.522;2022-12-31T05:06:00;15.00;71.20
16521;DHT22;8373;48.110;11.522;2022-12-31T05:08:28;15.00;71.30
16521;DHT22;8373;48.110;11.522;2022-12-31T05:10:55;15.00;71.20
16521;DHT22;8373;48.110;11.522;2022-12-31T05:13:22;15.00;71.20
16521;DHT22;8373;48.110;11.522;2022-12-31T05:15:51;15.10;71.30
16521;DHT22;8373;48.110;11.522;2022-12-31T05:18:18;15.00;71.10
16521;DHT22;8373;48.110;11.522;2022-12-31T05:20:46;15.10;71.20
16521;DHT22;8373;48.110;11.522;2022-12-31T05:23:13;15.10;71.30
16521;DHT22;8373;48.110;11.522;2022-12-31T05:25:41;15.00;71.20
16521;DHT22;8373;48.110;11.522;2022-12-31T05:28:08;15.00;71.30
16521;DHT22;8373;48.110;11.522;2022-12-31T05:30:36;15.00;71.40
16521;DHT22;8373;48.110;11.522;2022-12-31T05:33:04;15.00;71.40
16521;DHT22;8373;48.110;11.522;2022-12-31T05:35:31;15.00;71.60
16521;DHT22;8373;48.110;11.522;2022-12-31T05:37:58;15.00;71.60
16521;DHT22;8373;48.110;11.522;2022-12-31T05:40:26;15.00;71.60
16521;DHT22;8373;48.110;11.522;2022-12-31T05:42:53;15.00;71.70
16521;DHT22;8373;48.110;11.522;2022-12-31T05:45:20;15.00;71.80
16521;DHT22;8373;48.110;11.522;2022-12-31T05:47:47;15.00;71.80
16521;DHT22;8373;48.110;11.522;2022-12-31T05:50:16;15.00;71.80
16521;DHT22;8373;48.110;11.522;2022-12-31T05:52:44;14.90;71.80
16521;DHT22;8373;48.110;11.522;2022-12-31T05:55:12;14.90;71.80
16521;DHT22;8373;48.110;11.522;2022-12-31T05:57:39;14.90;71.80
16521;DHT22;8373;48.110;11.522;2022-12-31T06:00:09;14.90;71.90
16521;DHT22;8373;48.110;11.522;2022-12-31T06:02:36;14.80;71.90
16521;DHT22;8373;48.110;11.522;2022-12-31T06:05:03;14.80;72.00
16521;DHT22;8373;48.110;11.522;2022-12-31T06:07:32;14.80;72.00
16521;DHT22;8373;48.110;11.522;2022-12-31T06:09:59;14.80;72.00
16521;DHT22;8373;48.110;11.522;2022-12-31T06:12:26;14.70;71.90
16521;DHT22;8373;48.110;11.522;2022-12-31T06:14:53;14.70;71.90
16521;DHT22;8373;48.110;11.522;2022-12-31T06:17:20;14.70;71.90
16521;DHT22;8373;48.110;11.522;2022-12-31T06:19:47;14.70;71.90
16521;DHT22;8373;48.110;11.522;2022-12-31T06:22:15;14.70;72.00
16521;DHT22;8373;48.110;11.522;2022-12-31T06:24:43;14.70;71.90
16521;DHT22;8373;48.110;11.522;2022-12-31T06:27:10;14.60;71.70
16521;DHT22;8373;48.110;11.522;2022-12-31T06:29:37;14.60;71.70
16521;DHT22;8373;48.110;11.522;2022-12-31T06:32:04;14.60;71.70
16521;DHT22;8373;48.110;11.522;2022-12-31T06:34:31;14.60;71.70
16521;DHT22;8373;48.110;11.522;2022-12-31T06:36:58;14.60;71.60
16521;DHT22;8373;48.110;11.522;2022-12-31T06:39:26;14.60;71.60
16521;DHT22;8373;48.110;11.522;2022-12-31T06:41:55;14.70;71.60
16521;DHT22;8373;48.110;11.522;2022-12-31T06:44:22;14.60;71.50
16521;DHT22;8373;48.110;11.522;2022-12-31T06:46:49;14.70;71.70
16521;DHT22;8373;48.110;11.522;2022-12-31T06:49:16;14.70;71.60
16521;DHT22;8373;48.110;11.522;2022-12-31T06:51:43;14.70;71.70
16521;DHT22;8373;48.110;11.522;2022-12-31T06:54:12;14.70;71.80
16521;DHT22;8373;48.110;11.522;2022-12-31T06:56:40;14.70;71.70
16521;DHT22;8373;48.110;11.522;2022-12-31T06:59:24;14.70;71.60
16521;DHT22;8373;48.110;11.522;2022-12-31T07:02:06;14.70;71.50
16521;DHT22;8373;48.110;11.522;2022-12-31T07:04:57;14.70;71.40
16521;DHT22;8373;48.110;11.522;2022-12-31T07:07:32;14.70;71.60
16521;DHT22;8373;48.110;11.522;2022-12-31T07:10:06;14.70;71.80
16521;DHT22;8373;48.110;11.522;2022-12-31T07:12:46;14.70;71.90
16521;DHT22;8373;48.110;11.522;2022-12-31T07:15:19;14.60;71.80
16521;DHT22;8373;48.110;11.522;2022-12-31T07:18:02;14.60;72.10
16521;DHT22;8373;48.110;11.522;2022-12-31T07:20:30;14.60;72.20
16521;DHT22;8373;48.110;11.522;2022-12-31T07:22:58;14.60;72.30
16521;DHT22;8373;48.110;11.522;2022-12-31T07:25:26;14.60;72.30
16521;DHT22;8373;48.110;11.522;2022-12-31T07:28:04;14.60;72.20
16521;DHT22;8373;48.110;11.522;2022-12-31T07:30:41;14.70;72.30
16521;DHT22;8373;48.110;11.522;2022-12-31T07:33:23;14.70;72.10
16521;DHT22;8373;48.110;11.522;2022-12-31T07:36:01;14.70;72.10
16521;DHT22;8373;48.110;11.522;2022-12-31T07:38:35;14.70;71.90
16521;DHT22;8373;48.110;11.522;2022-12-31T07:41:09;14.70;72.00
16521;DHT22;8373;48.110;11.522;2022-12-31T07:43:47;14.70;72.10
16521;DHT22;8373;48.110;11.522;2022-12-31T07:46:21;14.70;72.20
16521;DHT22;8373;48.110;11.522;2022-12-31T07:48:52;14.70;72.20
16521;DHT22;8373;48.110;11.522;2022-12-31T07:51:19;14.70;72.10
16521;DHT22;8373;48.110;11.522;2022-12-31T07:53:46;14.70;71.90
16521;DHT22;8373;48.110;11.522;2022-12-31T07:56:13;14.70;71.90
16521;DHT22;8373;48.110;11.522;2022-12-31T07:58:53;14.70;71.80
16521;DHT22;8373;48.110;11.522;2022-12-31T08:01:30;14.70;71.60
16521;DHT22;8373;48.110;11.522;2022-12-31T08:04:01;14.70;71.10
16521;DHT22;8373;48.110;11.522;2022-12-31T08:06:38;14.70;70.90
16521;DHT22;8373;48.110;11.522;2022-12-31T08:09:20;14.80;70.90
16521;DHT22;8373;48.110;11.522;2022-12-31T08:11:55;14.70;70.40
16521;DHT22;8373;48.110;11.522;2022-12-31T08:14:23;14.80;70.50
16521;DHT22;8373;48.110;11.522;2022-12-31T08:16:52;14.70;70.30
16521;DHT22;8373;48.110;11.522;2022-12-31T08:19:23;14.80;70.10
16521;DHT22;8373;48.110;11.522;2022-12-31T08:22:07;14.80;69.70
16521;DHT22;8373;48.110;11.522;2022-12-31T08:24:46;14.90;69.20
16521;DHT22;8373;48.110;11.522;2022-12-31T08:27:20;14.90;69.10
16521;DHT22;8373;48.110;11.522;2022-12-31T08:29:57;15.00;68.90
16521;DHT22;8373;48.110;11.522;2022-12-31T08:32:33;15.00;68.70
16521;DHT22;8373;48.110;11.522;2022-12-31T08:35:05;15.10;68.90
16521;DHT22;8373;48.110;11.522;2022-12-31T08:37:36;15.20;68.90
16521;DHT22;8373;48.110;11.522;2022-12-31T08:40:17;15.20;67.90
16521;DHT22;8373;48.110;11.522;2022-12-31T08:43:00;15.20;67.80
16521;DHT22;8373;48.110;11.522;2022-12-31T08:45:33;15.20;67.80
16521;DHT22;8373;48.110;11.522;2022-12-31T08:48:09;15.30;67.90
16521;DHT22;8373;48.110;11.522;2022-12-31T08:50:43;15.30;67.30
16521;DHT22;8373;48.110;11.522;2022-12-31T08:53:10;15.30;66.90
16521;DHT22;8373;48.110;11.522;2022-12-31T08:55:37;15.40;67.00
16521;DHT22;8373;48.110;11.522;2022-12-31T08:58:16;15.60;66.60
16521;DHT22;8373;48.110;11.522;2022-12-31T09:00:45;15.80;66.50
16521;DHT22;8373;48.110;11.522;2022-12-31T09:03:31;16.10;66.30
16521;DHT22;8373;48.110;11.522;2022-12-31T09:06:07;16.40;65.90
16521;DHT22;8373;48.110;11.522;2022-12-31T09:08:43;16.70;64.20
16521;DHT22;8373;48.110;11.522;2022-12-31T09:11:17;16.90;63.30
16521;DHT22;8373;48.110;11.522;2022-12-31T09:14:00;16.90;61.90
16521;DHT22;8373;48.110;11.522;2022-12-31T09:16:38;16.80;61.90
16521;DHT22;8373;48.110;11.522;2022-12-31T09:19:10;16.70;61.70
16521;DHT22;8373;48.110;11.522;2022-12-31T09:21:39;16.70;61.80
16521;DHT22;8373;48.110;11.522;2022-12-31T09:24:11;16.60;61.70
16521;DHT22;8373;48.110;11.522;2022-12-31T09:26:48;16.50;62.00
16521;DHT22;8373;48.110;11.522;2022-12-31T09:29:26;16.40;62.00
16521;DHT22;8373;48.110;11.522;2022-12-31T09:32:05;16.50;62.30
16521;DHT22;8373;48.110;11.522;2022-12-31T09:34:41;16.70;61.90
16521;DHT22;8373;48.110;11.522;2022-12-31T09:37:15;16.70;60.90
16521;DHT22;8373;48.110;11.522;2022-12-31T09:39:45;16.70;60.30
16521;DHT22;8373;48.110;11.522;2022-12-31T09:42:47;16.70;60.10
16521;DHT22;8373;48.110;11.522;2022-12-31T09:45:53;16.70;60.30
16521;DHT22;8373;48.110;11.522;2022-12-31T09:48:49;16.90;60.00
16521;DHT22;8373;48.110;11.522;2022-12-31T09:51:29;17.50;59.10
16521;DHT22;8373;48.110;11.522;2022-12-31T09:54:34;17.90;58.40
16521;DHT22;8373;48.110;11.522;2022-12-31T09:57:19;18.50;57.00
16521;DHT22;8373;48.110;11.522;2022-12-31T09:59:56;19.00;55.60
16521;DHT22;8373;48.110;11.522;2022-12-31T10:02:40;19.50;54.70
16521;DHT22;8373;48.110;11.522;2022-12-31T10:05:41;20.00;53.50
16521;DHT22;8373;48.110;11.522;2022-12-31T10:08:25;20.50;51.30
16521;DHT22;8373;48.110;11.522;2022-12-31T10:10:57;20.90;50.70
16521;DHT22;8373;48.110;11.522;2022-12-31T10:13:39;21.30;49.30
16521;DHT22;8373;48.110;11.522;2022-12-31T10:16:48;21.80;49.20
16521;DHT22;8373;48.110;11.522;2022-12-31T10:19:55;22.80;48.20
16521;DHT22;8373;48.110;11.522;2022-12-31T10:22:42;23.80;45.50
16521;DHT22;8373;48.110;11.522;2022-12-31T10:25:25;24.10;44.10
16521;DHT22;8373;48.110;11.522;2022-12-31T10:27:58;24.40;43.30
16521;DHT22;8373;48.110;11.522;2022-12-31T10:30:31;24.40;42.50
16521;DHT22;8373;48.110;11.522;2022-12-31T10:33:06;24.10;42.30
16521;DHT22;8373;48.110;11.522;2022-12-31T10:35:38;23.80;42.60
16521;DHT22;8373;48.110;11.522;2022-12-31T10:38:20;23.20;43.00
16521;DHT22;8373;48.110;11.522;2022-12-31T10:47:24;21.40;46.20
16521;DHT22;8373;48.110;11.522;2022-12-31T10:50:30;21.00;47.00
16521;DHT22;8373;48.110;11.522;2022-12-31T10:53:17;20.40;48.00
16521;DHT22;8373;48.110;11.522;2022-12-31T11:02:27;19.50;51.20
16521;DHT22;8373;48.110;11.522;2022-12-31T11:08:34;20.40;50.20
16521;DHT22;8373;48.110;11.522;2022-12-31T11:11:21;20.40;49.60
16521;DHT22;8373;48.110;11.522;2022-12-31T11:16:53;20.20;50.20
16521;DHT22;8373;48.110;11.522;2022-12-31T11:19:28;20.00;50.20
16521;DHT22;8373;48.110;11.522;2022-12-31T11:22:22;19.80;50.80
16521;DHT22;8373;48.110;11.522;2022-12-31T11:25:12;19.70;51.10
16521;DHT22;8373;48.110;11.522;2022-12-31T11:27:53;19.90;51.40
16521;DHT22;8373;48.110;11.522;2022-12-31T11:30:24;20.20;51.50
16521;DHT22;8373;48.110;11.522;2022-12-31T11:33:05;20.50;50.70
16521;DHT22;8373;48.110;11.522;2022-12-31T11:35:49;20.50;49.70
16521;DHT22;8373;48.110;11.522;2022-12-31T11:38:23;20.60;50.10
16521;DHT22;8373;48.110;11.522;2022-12-31T11:40:59;20.60;49.80
16521;DHT22;8373;48.110;11.522;2022-12-31T11:43:33;20.70;49.90
16521;DHT22;8373;48.110;11.522;2022-12-31T11:49:01;20.90;49.50
16521;DHT22;8373;48.110;11.522;2022-12-31T11:54:47;21.50;48.90
16521;DHT22;8373;48.110;11.522;2022-12-31T11:57:21;22.10;48.30
16521;DHT22;8373;48.110;11.522;2022-12-31T11:59:52;22.90;46.90
16521;DHT22;8373;48.110;11.522;2022-12-31T12:02:25;23.70;45.50
16521;DHT22;8373;48.110;11.522;2022-12-31T12:04:54;24.40;44.10
16521;DHT22;8373;48.110;11.522;2022-12-31T12:07:25;24.60;42.90
16521;DHT22;8373;48.110;11.522;2022-12-31T12:09:54;24.70;42.50
16521;DHT22;8373;48.110;11.522;2022-12-31T12:12:21;24.80;42.10
16521;DHT22;8373;48.110;11.522;2022-12-31T12:14:51;24.80;41.70
16521;DHT22;8373;48.110;11.522;2022-12-31T12:17:25;24.70;41.30
16521;DHT22;8373;48.110;11.522;2022-12-31T12:20:00;24.40;40.70
16521;DHT22;8373;48.110;11.522;2022-12-31T12:22:30;24.20;41.00
16521;DHT22;8373;48.110;11.522;2022-12-31T12:25:02;24.10;41.50
16521;DHT22;8373;48.110;11.522;2022-12-31T12:27:31;24.10;41.50
16521;DHT22;8373;48.110;11.522;2022-12-31T12:30:07;24.00;41.40
16521;DHT22;8373;48.110;11.522;2022-12-31T12:32:34;23.90;41.50
16521;DHT22;8373;48.110;11.522;2022-12-31T12:35:13;23.80;41.60
16521;DHT22;8373;48.110;11.522;2022-12-31T12:37:41;23.60;41.70
16521;DHT22;8373;48.110;11.522;2022-12-31T12:40:18;23.50;42.20
16521;DHT22;8373;48.110;11.522;2022-12-31T12:42:46;23.50;42.00
16521;DHT22;8373;48.110;11.522;2022-12-31T12:45:16;23.20;42.10
16521;DHT22;8373;48.110;11.522;2022-12-31T12:47:45;23.30;42.90
16521;DHT22;8373;48.110;11.522;2022-12-31T12:50:15;23.40;42.90
16521;DHT22;8373;48.110;11.522;2022-12-31T12:52:55;23.50;43.20
16521;DHT22;8373;48.110;11.522;2022-12-31T12:55:32;23.50;43.10
16521;DHT22;8373;48.110;11.522;2022-12-31T13:00:52;23.50;43.90
16521;DHT22;8373;48.110;11.522;2022-12-31T13:06:25;23.20;43.00
16521;DHT22;8373;48.110;11.522;2022-12-31T13:09:05;23.10;44.40
16521;DHT22;8373;48.110;11.522;2022-12-31T13:11:39;23.00;44.00
16521;DHT22;8373;48.110;11.522;2022-12-31T13:14:18;22.90;43.90
16521;DHT22;8373;48.110;11.522;2022-12-31T13:16:54;22.60;43.70
16521;DHT22;8373;48.110;11.522;2022-12-31T13:19:32;22.50;44.50
16521;DHT22;8373;48.110;11.522;2022-12-31T13:22:05;22.50;44.60
16521;DHT22;8373;48.110;11.522;2022-12-31T13:24:48;22.40;44.50
16521;DHT22;8373;48.110;11.522;2022-12-31T13:27:22;22.40;45.60
16521;DHT22;8373;48.110;11.522;2022-12-31T13:29:55;22.30;47.30
16521;DHT22;8373;48.110;11.522;2022-12-31T13:32:29;22.10;48.20
16521;DHT22;8373;48.110;11.522;2022-12-31T13:35:02;22.00;49.00
16521;DHT22;8373;48.110;11.522;2022-12-31T13:37:39;21.80;50.00
16521;DHT22;8373;48.110;11.522;2022-12-31T13:40:17;21.50;50.60
16521;DHT22;8373;48.110;11.522;2022-12-31T13:42:52;21.30;51.40
16521;DHT22;8373;48.110;11.522;2022-12-31T13:45:23;21.10;52.00
16521;DHT22;8373;48.110;11.522;2022-12-31T13:47:54;20.90;52.70
16521;DHT22;8373;48.110;11.522;2022-12-31T13:50:27;20.80;52.90
16521;DHT22;8373;48.110;11.522;2022-12-31T13:52:57;20.70;53.40
16521;DHT22;8373;48.110;11.522;2022-12-31T13:55:32;20.70;53.80
16521;DHT22;8373;48.110;11.522;2022-12-31T13:58:04;20.60;54.10
16521;DHT22;8373;48.110;11.522;2022-12-31T14:00:37;20.60;54.10
16521;DHT22;8373;48.110;11.522;2022-12-31T14:03:12;20.50;54.10
16521;DHT22;8373;48.110;11.522;2022-12-31T14:05:47;20.30;54.50
16521;DHT22;8373;48.110;11.522;2022-12-31T14:08:17;20.30;54.90
16521;DHT22;8373;48.110;11.522;2022-12-31T14:10:56;20.20;55.30
16521;DHT22;8373;48.110;11.522;2022-12-31T14:13:33;20.00;55.60
16521;DHT22;8373;48.110;11.522;2022-12-31T14:16:10;19.90;55.80
16521;DHT22;8373;48.110;11.522;2022-12-31T14:18:44;19.80;56.10
16521;DHT22;8373;48.110;11.522;2022-12-31T14:21:17;19.80;56.40
16521;DHT22;8373;48.110;11.522;2022-12-31T14:23:51;19.70;56.70
16521;DHT22;8373;48.110;11.522;2022-12-31T14:26:26;19.60;57.10
16521;DHT22;8373;48.110;11.522;2022-12-31T14:29:02;19.50;57.30
16521;DHT22;8373;48.110;11.522;2022-12-31T14:31:50;19.40;57.60
16521;DHT22;8373;48.110;11.522;2022-12-31T14:34:28;19.40;57.90
16521;DHT22;8373;48.110;11.522;2022-12-31T14:37:03;19.30;58.20
16521;DHT22;8373;48.110;11.522;2022-12-31T14:39:42;19.10;58.50
16521;DHT22;8373;48.110;11.522;2022-12-31T14:42:21;19.00;58.80
16521;DHT22;8373;48.110;11.522;2022-12-31T14:45:02;18.90;59.00
16521;DHT22;8373;48.110;11.522;2022-12-31T14:47:39;18.90;59.30
16521;DHT22;8373;48.110;11.522;2022-12-31T14:50:12;18.80;59.70
16521;DHT22;8373;48.110;11.522;2022-12-31T14:52:49;18.70;59.90
16521;DHT22;8373;48.110;11.522;2022-12-31T14:55:26;18.60;60.20
16521;DHT22;8373;48.110;11.522;2022-12-31T14:57:55;18.50;60.50
16521;DHT22;8373;48.110;11.522;2022-12-31T15:00:27;18.50;60.70
16521;DHT22;8373;48.110;11.522;2022-12-31T15:02:57;18.40;61.00
16521;DHT22;8373;48.110;11.522;2022-12-31T15:05:26;18.30;61.40
16521;DHT22;8373;48.110;11.522;2022-12-31T15:08:13;18.30;61.80
16521;DHT22;8373;48.110;11.522;2022-12-31T15:10:51;18.20;61.70
16521;DHT22;8373;48.110;11.522;2022-12-31T15:13:40;18.10;61.80
16521;DHT22;8373;48.110;11.522;2022-12-31T15:16:21;18.10;62.00
16521;DHT22;8373;48.110;11.522;2022-12-31T15:19:13;18.00;62.10
16521;DHT22;8373;48.110;11.522;2022-12-31T15:21:53;18.00;62.40
16521;DHT22;8373;48.110;11.522;2022-12-31T15:24:23;17.90;62.60
16521;DHT22;8373;48.110;11.522;2022-12-31T15:26:53;17.80;62.80
16521;DHT22;8373;48.110;11.522;2022-12-31T15:29:29;17.70;63.10
16521;DHT22;8373;48.110;11.522;2022-12-31T15:32:00;17.70;63.50
16521;DHT22;8373;48.110;11.522;2022-12-31T15:34:29;17.60;63.80
16521;DHT22;8373;48.110;11.522;2022-12-31T15:36:59;17.50;64.00
16521;DHT22;8373;48.110;11.522;2022-12-31T15:39:40;17.40;65.30
16521;DHT22;8373;48.110;11.522;2022-12-31T15:42:33;17.30;65.00
16521;DHT22;8373;48.110;11.522;2022-12-31T15:45:12;17.30;65.40
16521;DHT22;8373;48.110;11.522;2022-12-31T15:47:44;17.20;65.60
16521;DHT22;8373;48.110;11.522;2022-12-31T15:50:15;17.20;65.80
16521;DHT22;8373;48.110;11.522;2022-12-31T15:52:46;17.10;66.00
16521;DHT22;8373;48.110;11.522;2022-12-31T15:55:21;17.00;66.20
16521;DHT22;8373;48.110;11.522;2022-12-31T15:57:52;17.00;66.60
16521;DHT22;8373;48.110;11.522;2022-12-31T16:00:22;16.90;66.80
16521;DHT22;8373;48.110;11.522;2022-12-31T16:02:52;16.80;66.90
16521;DHT22;8373;48.110;11.522;2022-12-31T16:05:21;16.70;67.10
16521;DHT22;8373;48.110;11.522;2022-12-31T16:07:51;16.70;67.40
16521;DHT22;8373;48.110;11.522;2022-12-31T16:10:24;16.70;67.70
16521;DHT22;8373;48.110;11.522;2022-12-31T16:12:53;16.60;67.80
16521;DHT22;8373;48.110;11.522;2022-12-31T16:15:24;16.50;68.10
16521;DHT22;8373;48.110;11.522;2022-12-31T16:18:02;16.40;68.40
16521;DHT22;8373;48.110;11.522;2022-12-31T16:20:31;16.40;68.80
16521;DHT22;8373;48.110;11.522;2022-12-31T16:23:00;16.30;68.90
16521;DHT22;8373;48.110;11.522;2022-12-31T16:25:29;16.30;69.20
16521;DHT22;8373;48.110;11.522;2022-12-31T16:27:57;16.20;69.40
16521;DHT22;8373;48.110;11.522;2022-12-31T16:30:27;16.20;69.50
16521;DHT22;8373;48.110;11.522;2022-12-31T16:32:57;16.20;69.70
16521;DHT22;8373;48.110;11.522;2022-12-31T16:35:27;16.10;69.70
16521;DHT22;8373;48.110;11.522;2022-12-31T16:38:12;16.10;69.90
16521;DHT22;8373;48.110;11.522;2022-12-31T16:40:41;16.10;70.20
16521;DHT22;8373;48.110;11.522;2022-12-31T16:43:25;15.90;70.30
16521;DHT22;8373;48.110;11.522;2022-12-31T16:45:55;15.90;70.60
16521;DHT22;8373;48.110;11.522;2022-12-31T16:48:24;15.90;70.80